Time;durP1;ratioP1;P1;durP2;ratioP2;P2;SDS_P1;SDS_P2;PMS_P1;PMS_P2;Temp;Humidity;BMP_temperature;BMP_pressure;BME280_temperature;BME280_humidity;BME280_pressure;Samples;Min_cycle;Max_cycle;Signal;HPM_P1;HPM_P2
2021/05/09 00:02:06;;;;;;;2.37;2.13;;;;;;;8.24;65.78;99507.06;5040938;28;20557;-79
2021/05/09 00:04:35;;;;;;;2.87;2.20;;;;;;;8.12;66.05;99492.69;5025895;28;20232;-80
2021/05/09 00:07:02;;;;;;;2.40;2.20;;;;;;;8.11;65.94;99498.25;5059631;28;20351;-79
2021/05/09 00:09:31;;;;;;;2.63;2.43;;;;;;;8.00;66.48;99489.00;5041805;28;20253;-81
2021/05/09 00:11:57;;;;;;;2.20;2.00;;;;;;;7.95;67.29;99494.13;5042312;28;20226;-82
2021/05/09 00:14:24;;;;;;;2.33;1.97;;;;;;;7.87;67.26;99492.50;5040564;28;20627;-80
2021/05/09 00:16:51;;;;;;;2.90;2.20;;;;;;;7.79;68.48;99492.69;5041843;28;20232;-81
2021/05/09 00:19:17;;;;;;;2.90;2.20;;;;;;;7.70;68.09;99485.13;5057632;28;20623;-82
2021/05/09 00:21:43;;;;;;;2.53;2.33;;;;;;;7.67;68.95;99481.00;5040716;28;20299;-82
2021/05/09 00:24:09;;;;;;;2.60;2.30;;;;;;;7.66;69.70;99498.03;5040795;28;20229;-81
2021/05/09 00:26:36;;;;;;;2.23;2.03;;;;;;;7.57;70.22;99493.91;5058504;28;20624;-81
2021/05/09 00:29:03;;;;;;;2.57;2.10;;;;;;;7.50;70.29;99490.44;5041635;28;20225;-81
2021/05/09 00:31:29;;;;;;;2.77;2.20;;;;;;;7.41;70.28;99491.66;5042385;28;20237;-81
2021/05/09 00:33:56;;;;;;;2.53;2.33;;;;;;;7.43;70.57;99503.75;5041051;28;20308;-81
2021/05/09 00:36:25;;;;;;;4.97;2.80;;;;;;;7.29;70.49;99480.75;5040604;28;20283;-81
2021/05/09 00:38:51;;;;;;;2.70;2.50;;;;;;;7.28;71.03;99486.31;5058784;28;20236;-82
2021/05/09 00:41:18;;;;;;;4.00;2.40;;;;;;;7.19;71.44;99479.47;5058196;28;20230;-81
2021/05/09 00:43:46;;;;;;;2.50;2.30;;;;;;;7.23;70.84;99497.53;5040012;28;20231;-80
2021/05/09 00:46:12;;;;;;;2.47;2.27;;;;;;;7.10;71.77;99492.16;5040126;28;20221;-81
2021/05/09 00:48:39;;;;;;;2.90;2.53;;;;;;;7.13;71.65;99494.47;5041893;28;20588;-84
2021/05/09 00:51:06;;;;;;;3.83;2.53;;;;;;;7.04;71.89;99493.81;5024119;28;20562;-82
2021/05/09 00:53:33;;;;;;;2.70;2.07;;;;;;;6.92;72.22;99473.25;5042234;28;20209;-81
2021/05/09 00:56:01;;;;;;;2.30;2.10;;;;;;;7.03;72.46;99496.69;5040668;28;20223;-83
2021/05/09 00:58:29;;;;;;;2.80;2.50;;;;;;;6.91;73.24;99499.06;5058275;28;20232;-81
2021/05/09 01:00:56;;;;;;;2.63;2.43;;;;;;;6.84;73.57;99492.91;5055927;28;20711;-81
2021/05/09 01:03:27;;;;;;;2.70;2.50;;;;;;;6.75;73.68;99480.78;5039777;28;20280;-84
2021/05/09 01:05:56;;;;;;;2.40;2.00;;;;;;;6.79;73.51;99487.38;5024034;28;20221;-81
2021/05/09 01:08:25;;;;;;;3.60;2.57;;;;;;;6.68;73.48;99471.94;5023592;28;20225;-81
2021/05/09 01:10:51;;;;;;;2.83;2.47;;;;;;;6.71;74.66;99487.53;5040548;28;20271;-82
2021/05/09 01:13:21;;;;;;;3.03;2.27;;;;;;;6.60;74.40;99482.75;5036926;28;20321;-81
2021/05/09 01:15:47;;;;;;;3.33;2.47;;;;;;;6.53;74.67;99476.59;5021375;28;20241;-82
2021/05/09 01:18:14;;;;;;;3.17;2.37;;;;;;;6.43;75.22;99478.78;5036921;28;20226;-80
2021/05/09 01:20:41;;;;;;;6.77;2.43;;;;;;;6.38;75.99;99479.38;5003889;28;20222;-81
2021/05/09 01:23:09;;;;;;;4.20;2.40;;;;;;;6.30;76.60;99478.72;5021181;28;20501;-81
2021/05/09 01:25:37;;;;;;;2.80;2.60;;;;;;;6.25;76.80;99481.97;5002858;28;20218;-81
2021/05/09 01:28:04;;;;;;;5.07;2.67;;;;;;;6.20;77.34;99492.38;5036556;28;20312;-81
2021/05/09 01:30:30;;;;;;;5.20;2.60;;;;;;;6.13;77.78;99481.69;5038410;28;20237;-83
2021/05/09 01:32:57;;;;;;;3.40;2.70;;;;;;;6.06;77.56;99482.66;5003629;28;20582;-81
2021/05/09 01:35:24;;;;;;;2.50;2.00;;;;;;;5.99;77.70;99495.91;5005575;28;20592;-81
2021/05/09 01:37:50;;;;;;;2.60;2.40;;;;;;;5.94;77.74;99490.34;5021168;28;20265;-82
2021/05/09 01:40:17;;;;;;;3.00;2.33;;;;;;;5.91;78.17;99482.75;5041733;28;20288;-81
2021/05/09 01:42:44;;;;;;;3.27;2.60;;;;;;;5.93;78.38;99487.84;5040455;28;20234;-81
2021/05/09 01:45:12;;;;;;;3.40;2.60;;;;;;;5.86;78.54;99493.09;5024540;28;20250;-82
2021/05/09 01:47:40;;;;;;;3.07;2.27;;;;;;;5.87;78.59;99494.78;5040747;28;20226;-82
2021/05/09 01:50:11;;;;;;;2.93;2.50;;;;;;;5.88;78.36;99490.31;5023102;28;20225;-84
2021/05/09 01:52:37;;;;;;;4.00;2.50;;;;;;;5.75;78.90;99478.50;5025103;28;20597;-81
2021/05/09 01:55:09;;;;;;;3.37;2.43;;;;;;;5.71;79.06;99485.22;5023987;28;20252;-81
2021/05/09 01:57:37;;;;;;;4.00;2.60;;;;;;;5.69;79.70;99491.75;5024886;28;20234;-82
2021/05/09 02:00:11;;;;;;;2.93;2.70;;;;;;;5.59;79.73;99489.41;5040753;28;20252;-81
2021/05/09 02:02:54;;;;;;;3.83;2.27;;;;;;;5.63;79.74;99493.31;5024549;28;20229;-81
2021/05/09 02:05:26;;;;;;;2.63;2.43;;;;;;;5.52;79.71;99490.34;5023922;28;20230;-81
2021/05/09 02:07:55;;;;;;;2.57;2.37;;;;;;;5.56;79.96;99489.78;5024680;28;20236;-82
2021/05/09 02:10:23;;;;;;;3.93;2.80;;;;;;;5.52;79.95;99493.81;5041473;28;20229;-80
2021/05/09 02:12:51;;;;;;;2.63;2.43;;;;;;;5.53;79.95;99505.28;5008594;28;20537;-81
2021/05/09 02:15:40;;;;;;;3.47;2.57;;;;;;;5.51;79.18;99489.53;5043223;28;20233;-81
2021/05/09 02:18:08;;;;;;;3.60;2.60;;;;;;;5.52;80.03;99503.63;5045284;28;20229;-81
2021/05/09 02:20:40;;;;;;;2.80;2.60;;;;;;;5.31;80.18;99488.53;5044722;28;20252;-82
2021/05/09 02:23:07;;;;;;;3.03;2.33;;;;;;;5.39;80.25;99509.66;5043548;28;20653;-82
2021/05/09 02:25:34;;;;;;;2.50;2.30;;;;;;;5.28;80.48;99495.03;5027776;28;20528;-81
2021/05/09 02:28:04;;;;;;;2.60;2.40;;;;;;;5.24;80.77;99496.41;5042762;28;20229;-82
2021/05/09 02:30:31;;;;;;;2.73;2.53;;;;;;;5.22;80.87;99508.25;5043196;28;20283;-81
2021/05/09 02:32:58;;;;;;;2.93;2.73;;;;;;;5.13;81.19;99496.91;5061276;28;20292;-81
2021/05/09 02:35:25;;;;;;;3.10;2.80;;;;;;;5.18;81.01;99504.34;5045664;28;20656;-81
2021/05/09 02:37:52;;;;;;;2.77;2.40;;;;;;;5.12;81.24;99497.09;5032841;28;20249;-82
2021/05/09 02:40:19;;;;;;;3.50;2.73;;;;;;;5.08;82.09;99499.31;5043479;28;20210;-81
2021/05/09 02:42:46;;;;;;;2.87;2.67;;;;;;;5.01;81.83;99498.41;5038013;28;20228;-81
2021/05/09 02:45:14;;;;;;;3.10;2.80;;;;;;;5.05;82.34;99509.47;5059866;28;20228;-81
2021/05/09 02:47:42;;;;;;;2.67;2.47;;;;;;;4.96;81.90;99495.50;5060903;28;20217;-81
2021/05/09 02:50:12;;;;;;;3.00;2.80;;;;;;;5.01;82.54;99517.00;5061648;28;20576;-82
2021/05/09 02:52:41;;;;;;;3.43;2.73;;;;;;;4.91;82.33;99500.53;5060997;28;20267;-80
2021/05/09 02:55:09;;;;;;;4.17;2.90;;;;;;;4.92;82.89;99512.81;5045671;28;20213;-81
2021/05/09 02:57:37;;;;;;;3.50;3.20;;;;;;;4.86;82.76;99510.88;5043501;28;20225;-81
2021/05/09 03:00:05;;;;;;;3.10;2.80;;;;;;;4.86;83.21;99518.84;5027391;28;20589;-80
2021/05/09 03:02:34;;;;;;;3.63;3.17;;;;;;;4.82;82.95;99518.41;5063868;28;20233;-84
2021/05/09 03:05:05;;;;;;;3.50;2.90;;;;;;;4.80;83.00;99522.25;5034167;28;20221;-83
2021/05/09 03:07:35;;;;;;;3.40;3.10;;;;;;;4.73;83.38;99524.81;5050647;28;20236;-82
2021/05/09 03:10:06;;;;;;;3.60;3.30;;;;;;;4.71;82.98;99523.38;5051009;28;20233;-83
2021/05/09 03:12:33;;;;;;;4.17;3.20;;;;;;;4.69;83.09;99533.34;5051867;28;20217;-83
2021/05/09 03:15:05;;;;;;;3.43;3.13;;;;;;;4.72;83.23;99532.97;5069261;28;20244;-84
2021/05/09 03:17:34;;;;;;;3.47;3.17;;;;;;;4.61;83.01;99517.53;5068537;28;20236;-83
2021/05/09 03:20:09;;;;;;;3.73;3.10;;;;;;;4.67;82.79;99524.72;5068154;28;20297;-82
2021/05/09 03:22:37;;;;;;;3.63;3.00;;;;;;;4.57;82.99;99510.94;5067902;28;20260;-83
2021/05/09 03:25:05;;;;;;;3.93;3.60;;;;;;;4.63;83.38;99528.75;5035288;28;20225;-83
2021/05/09 03:27:31;;;;;;;3.63;3.30;;;;;;;4.65;82.98;99532.06;5068061;28;20260;-83
2021/05/09 03:29:58;;;;;;;3.90;3.50;;;;;;;4.64;83.28;99539.19;5051713;28;20225;-83
2021/05/09 03:32:25;;;;;;;4.07;3.60;;;;;;;4.58;83.47;99524.00;5050895;28;20312;-81
2021/05/09 03:34:53;;;;;;;4.87;3.57;;;;;;;4.65;83.48;99535.53;5068573;28;20285;-83
2021/05/09 03:37:20;;;;;;;4.20;3.70;;;;;;;4.64;83.33;99541.84;5051106;28;20237;-83
2021/05/09 03:39:47;;;;;;;4.10;3.70;;;;;;;4.66;83.43;99549.63;5035276;28;20240;-83
2021/05/09 03:42:14;;;;;;;4.20;3.80;;;;;;;4.64;83.20;99544.50;5069116;28;20225;-83
2021/05/09 03:44:43;;;;;;;3.97;3.60;;;;;;;4.58;83.21;99531.97;5067847;28;20225;-83
2021/05/09 03:47:13;;;;;;;4.00;3.60;;;;;;;4.77;83.01;99549.16;5066997;28;20229;-83
2021/05/09 03:49:42;;;;;;;3.50;3.20;;;;;;;5.22;82.24;99550.75;5067849;28;20249;-82
2021/05/09 03:52:10;;;;;;;3.77;3.47;;;;;;;5.83;80.35;99548.50;5067594;28;20276;-84
2021/05/09 03:54:39;;;;;;;3.77;3.40;;;;;;;6.34;77.80;99557.13;5068225;28;20285;-83
2021/05/09 03:57:09;;;;;;;4.27;3.13;;;;;;;6.88;75.46;99560.75;5067614;28;20229;-83
2021/05/09 03:59:36;;;;;;;4.53;3.17;;;;;;;7.26;73.55;99555.78;5048277;28;20295;-81
2021/05/09 04:02:05;;;;;;;3.70;3.40;;;;;;;7.67;72.36;99619.66;5064319;28;20236;-83
2021/05/09 04:04:31;;;;;;;3.30;3.10;;;;;;;7.99;69.94;99554.06;5030282;28;20252;-83
2021/05/09 04:06:58;;;;;;;3.60;3.30;;;;;;;7.74;70.87;99542.34;5046321;28;20264;-83
2021/05/09 04:09:27;;;;;;;4.40;3.20;;;;;;;7.56;70.96;99545.59;5061785;28;20237;-81
2021/05/09 04:11:54;;;;;;;3.07;2.77;;;;;;;7.50;72.34;99557.91;5045162;28;20652;-84
2021/05/09 04:14:21;;;;;;;3.57;3.27;;;;;;;7.43;71.74;99548.22;5060559;28;20311;-83
2021/05/09 04:16:49;;;;;;;4.50;3.60;;;;;;;7.37;72.33;99541.06;5045287;28;20229;-84
2021/05/09 04:19:15;;;;;;;3.20;2.90;;;;;;;7.49;72.04;99547.44;5062344;28;20237;-82
2021/05/09 04:21:42;;;;;;;4.27;3.50;;;;;;;7.62;72.09;99557.28;5062622;28;20567;-83
2021/05/09 04:24:10;;;;;;;3.87;3.43;;;;;;;7.63;71.67;99549.09;5045555;28;20229;-83
2021/05/09 04:26:36;;;;;;;3.27;2.97;;;;;;;7.71;72.23;99540.91;5063038;28;20265;-84
2021/05/09 04:29:03;;;;;;;4.00;3.30;;;;;;;7.97;71.11;99558.78;5044873;28;20253;-83
2021/05/09 04:31:31;;;;;;;3.80;3.37;;;;;;;8.09;71.07;99561.66;5044421;28;20225;-82
2021/05/09 04:33:58;;;;;;;4.23;3.17;;;;;;;8.24;69.95;99573.78;5045117;28;20649;-83
2021/05/09 04:36:24;;;;;;;4.30;3.90;;;;;;;8.42;70.04;99573.19;5026928;28;20532;-83
2021/05/09 04:38:51;;;;;;;4.27;3.57;;;;;;;8.53;69.09;99577.91;5045079;28;20229;-83
2021/05/09 04:41:18;;;;;;;5.07;3.33;;;;;;;8.63;68.64;99574.81;5045537;28;20225;-82
2021/05/09 04:43:44;;;;;;;4.07;3.77;;;;;;;8.77;68.11;99568.41;5028119;28;20236;-83
2021/05/09 04:46:10;;;;;;;4.80;3.73;;;;;;;8.77;68.33;99574.56;5043285;28;20252;-84
2021/05/09 04:48:37;;;;;;;4.33;3.60;;;;;;;8.66;68.58;99567.19;5060975;28;20293;-83
2021/05/09 04:51:06;;;;;;;4.07;3.70;;;;;;;8.89;68.14;99573.91;5061998;28;20287;-83
2021/05/09 04:53:37;;;;;;;4.67;3.50;;;;;;;8.94;67.89;99574.94;5063192;28;20230;-82
2021/05/09 04:56:08;;;;;;;3.80;3.47;;;;;;;8.88;68.24;99577.59;5044403;28;20217;-82
2021/05/09 04:58:36;;;;;;;4.57;3.60;;;;;;;8.82;68.04;99580.09;5045347;28;20264;-83
2021/05/09 05:01:04;;;;;;;4.93;3.43;;;;;;;8.86;68.65;99585.03;5044361;28;20240;-84
2021/05/09 05:03:32;;;;;;;3.73;3.43;;;;;;;8.73;68.29;99570.66;5061320;28;20226;-83
2021/05/09 05:06:00;;;;;;;4.53;3.63;;;;;;;9.14;67.95;99582.88;5062059;28;20225;-83
2021/05/09 05:08:27;;;;;;;4.03;3.70;;;;;;;9.21;67.55;99572.97;5065438;28;20355;-83
2021/05/09 05:10:53;;;;;;;5.80;3.90;;;;;;;9.32;67.42;99588.38;5049610;28;20224;-83
2021/05/09 05:13:24;;;;;;;3.83;3.53;;;;;;;9.39;67.11;99583.78;5065737;28;20588;-83
2021/05/09 05:15:53;;;;;;;4.50;3.57;;;;;;;9.50;66.81;99590.34;5067348;28;20230;-84
2021/05/09 05:18:22;;;;;;;4.10;3.70;;;;;;;9.88;66.17;99587.66;5050155;28;20645;-83
2021/05/09 05:20:49;;;;;;;4.00;3.60;;;;;;;10.14;65.11;99588.28;5066224;28;20655;-83
2021/05/09 05:23:16;;;;;;;4.70;3.80;;;;;;;10.17;64.72;99592.41;5049935;28;20225;-83
2021/05/09 05:25:42;;;;;;;4.27;3.50;;;;;;;10.38;63.97;99575.13;5050055;28;20225;-83
2021/05/09 05:28:09;;;;;;;4.87;3.83;;;;;;;10.66;63.19;99591.56;5049904;28;20544;-81
2021/05/09 05:30:36;;;;;;;4.43;3.50;;;;;;;10.87;62.57;99590.34;5050505;28;20634;-82
2021/05/09 05:33:06;;;;;;;3.90;3.60;;;;;;;11.01;62.12;99581.13;5067000;28;20256;-83
2021/05/09 05:35:37;;;;;;;3.53;3.23;;;;;;;11.32;61.27;99589.00;5066960;28;20283;-82
2021/05/09 05:38:04;;;;;;;3.73;3.40;;;;;;;11.54;60.61;99597.38;5067926;28;20225;-84
2021/05/09 05:40:33;;;;;;;4.00;3.60;;;;;;;11.63;59.53;99593.31;5067755;28;20225;-83
2021/05/09 05:43:02;;;;;;;4.60;3.47;;;;;;;11.72;59.19;99600.03;5050405;28;20229;-83
2021/05/09 05:45:31;;;;;;;4.33;4.00;;;;;;;11.81;58.94;99600.53;5067988;28;20222;-84
2021/05/09 05:48:01;;;;;;;7.27;3.47;;;;;;;11.93;58.00;99596.03;5067557;28;20264;-80
2021/05/09 05:50:28;;;;;;;4.13;3.70;;;;;;;12.12;57.44;99602.97;5067190;28;20550;-80
2021/05/09 05:52:56;;;;;;;6.00;3.70;;;;;;;12.11;56.93;99603.19;5049597;28;20222;-79
2021/05/09 05:55:22;;;;;;;4.17;3.47;;;;;;;12.07;57.34;99600.16;5050758;28;20260;-81
2021/05/09 05:57:48;;;;;;;4.50;3.63;;;;;;;12.19;56.84;99597.50;5066947;28;20234;-81
2021/05/09 06:00:17;;;;;;;3.80;3.40;;;;;;;12.34;56.81;99606.75;5049400;28;20252;-80
2021/05/09 06:02:44;;;;;;;3.77;3.40;;;;;;;12.49;55.61;99602.81;5067504;28;20232;-80
2021/05/09 06:05:13;;;;;;;3.70;3.40;;;;;;;12.47;54.69;99603.03;5066564;28;20312;-80
2021/05/09 06:07:40;;;;;;;4.07;3.20;;;;;;;12.58;54.38;99602.22;5067737;28;20225;-80
2021/05/09 06:10:11;;;;;;;4.10;3.70;;;;;;;12.66;54.09;99604.56;5068440;28;20240;-81
2021/05/09 06:12:40;;;;;;;3.77;3.30;;;;;;;12.85;53.93;99604.44;5067631;28;20229;-81
2021/05/09 06:15:10;;;;;;;3.97;3.43;;;;;;;12.96;53.68;99599.06;5066870;28;20232;-81
2021/05/09 06:17:38;;;;;;;5.47;3.37;;;;;;;13.03;53.43;99593.53;5050352;28;20232;-80
2021/05/09 06:20:10;;;;;;;3.90;3.33;;;;;;;13.08;54.52;99599.84;5067667;28;20233;-81
2021/05/09 06:22:38;;;;;;;4.70;3.40;;;;;;;13.33;54.06;99591.53;5068364;28;20260;-80
2021/05/09 06:25:07;;;;;;;4.47;3.50;;;;;;;13.49;54.42;99606.09;5066114;28;20653;-80
2021/05/09 06:27:35;;;;;;;3.77;3.47;;;;;;;13.60;54.66;99595.31;5046292;28;20265;-81
2021/05/09 06:30:06;;;;;;;3.97;3.60;;;;;;;13.86;54.49;99606.53;5045699;28;20218;-80
2021/05/09 06:32:33;;;;;;;5.23;3.87;;;;;;;13.92;53.36;99598.31;5043700;28;20222;-80
2021/05/09 06:35:00;;;;;;;3.80;3.40;;;;;;;14.03;53.50;99615.50;5024928;28;20243;-80
2021/05/09 06:37:28;;;;;;;3.70;3.40;;;;;;;14.17;53.42;99599.84;5055035;28;20229;-80
2021/05/09 06:39:56;;;;;;;3.40;3.10;;;;;;;14.24;53.47;99606.69;5059844;28;20229;-82
2021/05/09 06:42:22;;;;;;;3.83;3.27;;;;;;;14.25;53.56;99584.06;5040508;28;20237;-82
2021/05/09 06:44:55;;;;;;;4.53;3.20;;;;;;;14.40;52.57;99587.06;5039859;28;20244;-81
2021/05/09 06:47:24;;;;;;;4.70;2.90;;;;;;;14.57;52.01;99597.81;5056657;28;20221;-81
2021/05/09 06:49:51;;;;;;;4.20;3.17;;;;;;;14.65;52.06;99593.91;5055554;28;20226;-80
2021/05/09 06:52:17;;;;;;;4.13;3.10;;;;;;;14.83;51.44;99601.72;5038291;28;20703;-83
2021/05/09 06:54:46;;;;;;;4.17;3.40;;;;;;;14.93;51.09;99586.47;4996005;28;20233;-81
2021/05/09 06:57:14;;;;;;;3.83;3.10;;;;;;;14.96;51.21;99583.31;5019519;28;20233;-82
2021/05/09 06:59:40;;;;;;;3.40;3.10;;;;;;;15.02;50.37;99589.59;5002748;28;20285;-81
2021/05/09 07:02:10;;;;;;;3.63;3.20;;;;;;;15.12;51.16;99573.50;5027664;28;20633;-81
2021/05/09 07:04:39;;;;;;;3.70;2.77;;;;;;;15.28;51.24;99596.94;5021884;28;20573;-83
2021/05/09 07:07:06;;;;;;;3.20;2.90;;;;;;;15.50;51.02;99594.22;5038492;28;20227;-83
2021/05/09 07:09:32;;;;;;;3.57;3.20;;;;;;;15.60;49.77;99591.69;5022124;28;20586;-82
2021/05/09 07:11:58;;;;;;;3.80;3.07;;;;;;;15.84;49.60;99590.34;5038606;28;20673;-84
2021/05/09 07:14:25;;;;;;;3.40;3.00;;;;;;;15.84;49.02;99597.63;5038239;28;20231;-84
2021/05/09 07:16:51;;;;;;;3.63;2.80;;;;;;;15.90;49.57;99602.00;5038608;28;20223;-83
2021/05/09 07:19:18;;;;;;;3.10;2.80;;;;;;;15.99;49.50;99592.38;5021938;28;20318;-86
2021/05/09 07:21:48;;;;;;;3.60;3.30;;;;;;;16.16;48.99;99582.25;5055237;28;20533;-83
2021/05/09 07:24:14;;;;;;;3.20;2.90;;;;;;;16.28;48.23;99588.28;5037854;28;20647;-86
2021/05/09 07:26:43;;;;;;;3.20;2.60;;;;;;;16.45;47.33;99582.78;5056139;28;20271;-81
2021/05/09 07:29:17;;;;;;;3.10;2.70;;;;;;;16.61;47.35;99592.63;5022144;28;20320;-84
2021/05/09 07:31:46;;;;;;;3.10;2.40;;;;;;;16.77;47.44;99593.56;5038431;28;20221;-81
2021/05/09 07:34:14;;;;;;;3.80;3.00;;;;;;;16.83;47.55;99581.72;5055135;28;20320;-80
2021/05/09 07:36:40;;;;;;;2.83;2.63;;;;;;;16.86;47.13;99588.47;5054767;28;20229;-80
2021/05/09 07:39:07;;;;;;;2.80;2.60;;;;;;;16.83;46.06;99584.41;5021508;28;20225;-80
2021/05/09 07:41:34;;;;;;;4.47;2.40;;;;;;;16.95;46.26;99584.19;5054280;28;20279;-82
2021/05/09 07:44:03;;;;;;;3.20;2.60;;;;;;;17.08;46.47;99571.00;5052600;28;20224;-82
2021/05/09 07:46:30;;;;;;;2.73;2.40;;;;;;;17.16;46.06;99578.66;5021288;28;20225;-81
2021/05/09 07:48:57;;;;;;;3.17;2.50;;;;;;;17.34;45.50;99577.38;5054453;28;20291;-84
2021/05/09 07:51:23;;;;;;;2.43;2.10;;;;;;;17.49;45.28;99580.16;5021342;28;20637;-78
2021/05/09 07:53:49;;;;;;;3.17;2.50;;;;;;;17.65;45.32;99566.66;5020075;28;20233;-79
2021/05/09 07:56:16;;;;;;;5.63;2.23;;;;;;;17.71;45.91;99585.38;5036556;28;20275;-82
2021/05/09 07:58:42;;;;;;;2.50;2.30;;;;;;;17.80;45.25;99563.97;5036981;28;20232;-78
2021/05/09 08:01:09;;;;;;;3.53;2.50;;;;;;;17.99;44.91;99567.81;5020677;28;20229;-82
2021/05/09 08:03:37;;;;;;;5.27;2.80;;;;;;;18.08;43.88;99560.78;5054693;28;20272;-81
2021/05/09 08:06:04;;;;;;;2.50;2.30;;;;;;;18.22;44.84;99561.03;5053095;28;20229;-79
2021/05/09 08:08:31;;;;;;;3.93;2.40;;;;;;;18.27;43.79;99558.34;5037311;28;20272;-86
2021/05/09 08:10:59;;;;;;;4.63;2.53;;;;;;;18.48;43.19;99574.31;5027819;28;20229;-80
2021/05/09 08:13:25;;;;;;;2.50;2.30;;;;;;;18.41;43.59;99564.84;4999565;28;20288;-80
2021/05/09 08:15:52;;;;;;;2.83;2.53;;;;;;;18.60;43.24;99568.66;5032237;28;20228;-81
2021/05/09 08:18:24;;;;;;;2.53;2.30;;;;;;;18.71;43.19;99569.47;5016701;28;20225;-79
2021/05/09 08:20:51;;;;;;;4.13;2.50;;;;;;;18.88;43.43;99570.78;5025123;28;20261;-81
2021/05/09 08:23:19;;;;;;;2.50;2.10;;;;;;;18.89;42.31;99558.84;5014083;28;20221;-81
2021/05/09 08:25:45;;;;;;;2.43;2.20;;;;;;;18.91;42.66;99556.66;5036799;28;20276;-79
2021/05/09 08:28:12;;;;;;;3.97;2.17;;;;;;;19.18;42.46;99556.28;5026534;28;20229;-81
2021/05/09 08:30:39;;;;;;;3.47;2.33;;;;;;;19.41;41.80;99548.59;5004003;28;20222;-83
2021/05/09 08:33:05;;;;;;;2.30;2.10;;;;;;;19.46;41.70;99540.44;5037036;28;20233;-82
2021/05/09 08:35:35;;;;;;;2.47;2.10;;;;;;;19.45;41.20;99542.38;5037543;28;20220;-81
2021/05/09 08:38:04;;;;;;;2.33;2.13;;;;;;;19.43;42.12;99530.09;5051181;28;20229;-80
2021/05/09 08:40:38;;;;;;;3.17;2.03;;;;;;;19.56;41.32;99526.78;5006531;28;20245;-84
2021/05/09 08:43:04;;;;;;;2.07;1.97;;;;;;;19.76;41.30;99546.53;5040893;28;20243;-79
2021/05/09 08:45:31;;;;;;;2.30;2.10;;;;;;;19.89;40.92;99541.53;5024359;28;20552;-81
2021/05/09 08:47:58;;;;;;;3.23;2.23;;;;;;;19.95;40.57;99537.69;5040687;28;20244;-82
2021/05/09 08:50:26;;;;;;;2.57;2.20;;;;;;;20.07;39.94;99538.94;5040968;28;20229;-81
2021/05/09 08:52:54;;;;;;;2.37;1.70;;;;;;;20.25;40.23;99537.44;5024612;28;20233;-81
2021/05/09 08:55:23;;;;;;;2.10;2.00;;;;;;;20.30;39.55;99517.53;5024425;28;20233;-82
2021/05/09 08:57:50;;;;;;;3.60;2.20;;;;;;;20.46;39.47;99519.88;5057481;28;20229;-79
2021/05/09 09:00:17;;;;;;;4.17;2.20;;;;;;;20.68;38.99;99530.28;5040472;28;20229;-80
2021/05/09 09:02:55;;;;;;;2.30;1.80;;;;;;;20.76;38.81;99531.56;5042662;28;20229;-80
2021/05/09 09:05:37;;;;;;;2.17;1.60;;;;;;;20.88;38.67;99530.06;5040639;28;20235;-83
2021/05/09 09:08:05;;;;;;;6.40;1.90;;;;;;;20.89;37.96;99528.97;5039849;28;20233;-85
2021/05/09 09:10:35;;;;;;;2.60;1.87;;;;;;;20.79;37.83;99520.91;5040751;28;20226;-81
2021/05/09 09:13:03;;;;;;;2.03;1.60;;;;;;;20.90;38.25;99516.16;5039587;28;20240;-82
2021/05/09 09:15:47;;;;;;;2.60;1.47;;;;;;;21.04;38.04;99523.31;5056331;28;20223;-81
2021/05/09 09:18:33;;;;;;;2.00;1.70;;;;;;;21.19;37.99;99524.28;5039885;28;20239;-80
2021/05/09 09:21:23;;;;;;;2.00;1.80;;;;;;;21.24;37.25;99522.31;5040644;28;20253;-83
2021/05/09 09:23:55;;;;;;;2.27;1.60;;;;;;;21.25;37.46;99517.66;5040510;28;20307;-80
2021/05/09 09:26:49;;;;;;;2.17;1.60;;;;;;;21.35;37.75;99523.00;5023733;28;20232;-83
2021/05/09 09:29:29;;;;;;;2.17;1.90;;;;;;;21.40;36.16;99514.75;5038852;28;20661;-85
2021/05/09 09:32:00;;;;;;;2.40;1.70;;;;;;;21.50;37.26;99518.16;5039991;28;20533;-84
2021/05/09 09:34:43;;;;;;;3.27;1.50;;;;;;;21.62;36.40;99508.72;5015179;28;20223;-85
2021/05/09 09:37:19;;;;;;;2.23;1.60;;;;;;;21.57;36.61;99493.22;5023628;28;20231;-84
2021/05/09 09:39:46;;;;;;;1.60;1.50;;;;;;;21.72;36.64;99505.84;5039807;28;20233;-84
2021/05/09 09:42:14;;;;;;;1.90;1.70;;;;;;;21.91;35.42;99512.91;5038375;28;20574;-84
2021/05/09 09:44:45;;;;;;;1.93;1.70;;;;;;;21.93;35.46;99494.34;5040139;28;20224;-84
2021/05/09 09:47:12;;;;;;;2.03;1.90;;;;;;;22.01;35.39;99495.59;5037297;28;20566;-84
2021/05/09 09:49:38;;;;;;;2.70;1.70;;;;;;;22.02;34.90;99496.41;5025926;28;20231;-84
2021/05/09 09:52:12;;;;;;;2.97;1.50;;;;;;;22.08;35.33;99490.56;5023089;28;20599;-84
2021/05/09 09:54:45;;;;;;;2.07;1.67;;;;;;;22.29;35.30;99508.22;5025013;28;20237;-83
2021/05/09 09:57:22;;;;;;;2.07;1.60;;;;;;;22.38;34.97;99511.88;5023356;28;20232;-82
2021/05/09 10:00:13;;;;;;;3.60;1.87;;;;;;;22.46;34.06;99502.19;5039235;28;20251;-83
2021/05/09 10:02:43;;;;;;;4.03;1.63;;;;;;;22.50;33.47;99491.47;5038852;28;20228;-85
2021/05/09 10:05:13;;;;;;;1.23;1.13;;;;;;;22.48;33.95;99490.97;5038833;28;20228;-85
2021/05/09 10:07:39;;;;;;;2.90;1.67;;;;;;;22.61;33.94;99496.44;5039263;28;20530;-83
2021/05/09 10:10:06;;;;;;;1.83;1.73;;;;;;;22.68;34.44;99490.56;5038170;28;20233;-80
2021/05/09 10:12:33;;;;;;;2.47;1.70;;;;;;;22.62;34.60;99465.31;5047524;28;20233;-82
2021/05/09 10:15:05;;;;;;;1.80;1.60;;;;;;;22.80;34.06;99461.69;5023640;28;20639;-84
2021/05/09 10:17:31;;;;;;;2.47;1.73;;;;;;;22.93;34.58;99459.25;5022402;28;20237;-84
2021/05/09 10:19:58;;;;;;;1.80;1.50;;;;;;;23.13;33.14;99476.03;5038019;28;20225;-84
2021/05/09 10:22:35;;;;;;;2.30;1.60;;;;;;;23.03;33.59;99462.59;5054641;28;20239;-82
2021/05/09 10:25:07;;;;;;;2.77;1.53;;;;;;;23.11;33.50;99431.00;5023051;28;20290;-82
2021/05/09 10:27:38;;;;;;;3.33;1.60;;;;;;;23.39;32.24;99478.22;5036893;28;20232;-83
2021/05/09 10:30:14;;;;;;;5.03;1.70;;;;;;;23.40;32.67;99450.56;5034057;28;20667;-85
2021/05/09 10:32:48;;;;;;;2.03;1.60;;;;;;;23.61;32.06;99461.88;5021743;28;20249;-82
2021/05/09 10:35:15;;;;;;;2.10;1.53;;;;;;;23.61;32.27;99459.94;5054970;28;20595;-84
2021/05/09 10:37:42;;;;;;;1.60;1.40;;;;;;;23.64;31.63;99464.81;5055235;28;20236;-82
2021/05/09 10:40:35;;;;;;;1.67;1.50;;;;;;;23.79;32.29;99455.44;5037784;28;20528;-83
2021/05/09 10:43:02;;;;;;;1.70;1.60;;;;;;;23.76;31.16;99456.03;5034953;28;20275;-84
2021/05/09 10:45:35;;;;;;;3.55;1.60;;;;;;;23.83;31.56;99452.88;5038617;28;20252;-83
2021/05/09 10:48:18;;;;;;;2.88;1.55;;;;;;;23.79;31.00;99451.88;5055789;28;20545;-81
2021/05/09 10:50:45;;;;;;;1.55;1.42;;;;;;;23.97;31.45;99443.50;5038585;28;20311;-85
2021/05/09 10:53:52;;;;;;;1.80;1.60;;;;;;;23.95;31.06;99444.91;5022433;28;20280;-83
2021/05/09 10:56:18;;;;;;;1.98;1.52;;;;;;;23.91;30.90;99450.19;5038026;28;20619;-82
2021/05/09 10:58:48;;;;;;;2.83;1.52;;;;;;;23.95;31.25;99444.91;5056226;28;20221;-82
2021/05/09 11:01:34;;;;;;;4.78;2.00;;;;;;;24.11;31.10;99440.69;5055900;28;20236;-83
2021/05/09 11:04:05;;;;;;;1.52;1.42;;;;;;;24.22;30.84;99436.56;5037518;28;20225;-83
2021/05/09 11:06:33;;;;;;;2.45;1.70;;;;;;;24.28;30.71;99439.97;5037583;28;20221;-80
2021/05/09 11:09:01;;;;;;;2.08;1.83;;;;;;;24.29;31.63;99439.69;5038063;28;20229;-80
2021/05/09 11:11:28;;;;;;;1.85;1.52;;;;;;;24.41;31.03;99436.34;5038021;28;20244;-80
2021/05/09 11:13:57;;;;;;;1.92;1.73;;;;;;;24.40;30.76;99445.69;5038201;28;20233;-81
2021/05/09 11:16:25;;;;;;;2.05;1.80;;;;;;;24.46;31.38;99438.94;5037521;28;20308;-83
2021/05/09 11:19:09;;;;;;;1.65;1.52;;;;;;;24.57;30.73;99432.06;5005240;28;20232;-82
2021/05/09 11:21:41;;;;;;;3.08;2.78;;;;;;;24.60;30.47;99420.47;5021630;28;20217;-81
2021/05/09 11:24:09;;;;;;;2.58;2.05;;;;;;;24.64;30.06;99415.97;5021197;28;20237;-82
2021/05/09 11:26:47;;;;;;;5.60;2.20;;;;;;;24.71;30.34;99412.78;5037880;28;20632;-81
2021/05/09 11:29:15;;;;;;;19.58;11.38;;;;;;;24.76;29.98;99401.69;5037927;28;20252;-82
2021/05/09 11:31:44;;;;;;;3.40;2.78;;;;;;;24.68;29.57;99395.06;5054396;28;20617;-83
2021/05/09 11:34:10;;;;;;;5.88;5.15;;;;;;;24.71;29.65;99386.19;5037057;28;20245;-82
2021/05/09 11:36:38;;;;;;;4.03;2.80;;;;;;;24.73;29.64;99400.38;5054223;28;20222;-80
2021/05/09 11:39:05;;;;;;;3.13;1.70;;;;;;;24.76;29.83;99396.19;5038174;28;20598;-81
2021/05/09 11:42:05;;;;;;;1.90;1.58;;;;;;;24.74;29.62;99382.00;5037426;28;20239;-81
2021/05/09 11:44:48;;;;;;;1.85;1.50;;;;;;;24.83;30.50;99380.09;5037447;28;20619;-80
2021/05/09 11:47:23;;;;;;;2.33;1.30;;;;;;;24.82;29.87;99373.78;5037711;28;20739;-83